sensor_id;sensor_type;location;lat;lon;timestamp;pressure;altitude;pressure_sealevel;temperature;humidity
11114;BME280;5610;52.154;9.198;2023-03-22T00:00:44;100239.06;;;11.13;100.00
11114;BME280;5610;52.154;9.198;2023-03-22T00:03:30;100230.75;;;11.18;100.00
11114;BME280;5610;52.154;9.198;2023-03-22T00:06:16;100233.94;;;11.23;100.00
11114;BME280;5610;52.154;9.198;2023-03-22T00:09:01;100236.38;;;11.26;100.00
11114;BME280;5610;52.154;9.198;2023-03-22T00:11:47;100231.59;;;11.18;100.00
11114;BME280;5610;52.154;9.198;2023-03-22T00:14:34;100226.69;;;11.25;100.00
11114;BME280;5610;52.154;9.198;2023-03-22T00:17:19;100227.34;;;11.28;100.00
11114;BME280;5610;52.154;9.198;2023-03-22T00:20:08;100232.66;;;11.28;100.00
11114;BME280;5610;52.154;9.198;2023-03-22T00:22:54;100217.41;;;11.18;100.00
11114;BME280;5610;52.154;9.198;2023-03-22T00:25:39;100222.63;;;11.19;100.00
11114;BME280;5610;52.154;9.198;2023-03-22T00:28:24;100219.41;;;11.27;100.00
11114;BME280;5610;52.154;9.198;2023-03-22T00:31:10;100212.72;;;11.21;100.00
11114;BME280;5610;52.154;9.198;2023-03-22T00:33:55;100201.72;;;11.26;100.00
11114;BME280;5610;52.154;9.198;2023-03-22T00:36:41;100202.06;;;11.21;100.00
11114;BME280;5610;52.154;9.198;2023-03-22T00:39:27;100198.81;;;11.42;100.00
11114;BME280;5610;52.154;9.198;2023-03-22T00:42:12;100192.97;;;11.37;100.00
11114;BME280;5610;52.154;9.198;2023-03-22T00:44:57;100195.91;;;11.45;100.00
11114;BME280;5610;52.154;9.198;2023-03-22T00:47:43;100189.94;;;11.41;100.00
11114;BME280;5610;52.154;9.198;2023-03-22T00:50:29;100184.94;;;11.49;100.00
11114;BME280;5610;52.154;9.198;2023-03-22T00:53:15;100178.81;;;11.47;100.00
11114;BME280;5610;52.154;9.198;2023-03-22T00:56:00;100180.78;;;11.45;100.00
11114;BME280;5610;52.154;9.198;2023-03-22T00:58:52;100187.13;;;11.55;100.00
11114;BME280;5610;52.154;9.198;2023-03-22T01:01:38;100185.94;;;11.60;100.00
11114;BME280;5610;52.154;9.198;2023-03-22T01:04:23;100171.63;;;11.61;100.00
11114;BME280;5610;52.154;9.198;2023-03-22T01:07:09;100177.63;;;11.64;100.00
11114;BME280;5610;52.154;9.198;2023-03-22T01:10:02;100163.81;;;11.70;100.00
11114;BME280;5610;52.154;9.198;2023-03-22T01:12:47;100164.09;;;11.78;100.00
11114;BME280;5610;52.154;9.198;2023-03-22T01:15:33;100178.94;;;11.82;100.00
11114;BME280;5610;52.154;9.198;2023-03-22T01:18:18;100177.25;;;11.81;100.00
11114;BME280;5610;52.154;9.198;2023-03-22T01:21:03;100165.28;;;11.74;100.00
11114;BME280;5610;52.154;9.198;2023-03-22T01:23:49;100164.09;;;11.78;100.00
11114;BME280;5610;52.154;9.198;2023-03-22T01:26:35;100164.75;;;11.82;100.00
11114;BME280;5610;52.154;9.198;2023-03-22T01:29:21;100159.28;;;11.83;100.00
11114;BME280;5610;52.154;9.198;2023-03-22T01:32:07;100152.16;;;11.84;100.00
11114;BME280;5610;52.154;9.198;2023-03-22T01:34:52;100161.75;;;11.87;100.00
11114;BME280;5610;52.154;9.198;2023-03-22T01:37:38;100155.03;;;11.81;100.00
11114;BME280;5610;52.154;9.198;2023-03-22T01:40:23;100153.00;;;11.85;100.00
11114;BME280;5610;52.154;9.198;2023-03-22T01:43:14;100144.19;;;11.71;100.00
11114;BME280;5610;52.154;9.198;2023-03-22T01:46:00;100148.72;;;11.82;100.00
11114;BME280;5610;52.154;9.198;2023-03-22T01:48:48;100157.81;;;11.79;100.00
11114;BME280;5610;52.154;9.198;2023-03-22T01:51:35;100139.66;;;11.85;100.00
11114;BME280;5610;52.154;9.198;2023-03-22T01:54:35;100136.16;;;11.95;100.00
11114;BME280;5610;52.154;9.198;2023-03-22T01:57:37;100125.63;;;11.94;100.00
11114;BME280;5610;52.154;9.198;2023-03-22T02:00:29;100118.34;;;11.96;100.00
11114;BME280;5610;52.154;9.198;2023-03-22T02:03:41;100120.13;;;11.84;100.00
11114;BME280;5610;52.154;9.198;2023-03-22T02:06:30;100110.50;;;11.81;100.00
11114;BME280;5610;52.154;9.198;2023-03-22T02:09:23;100121.28;;;11.80;100.00
11114;BME280;5610;52.154;9.198;2023-03-22T02:12:16;100120.75;;;11.75;100.00
11114;BME280;5610;52.154;9.198;2023-03-22T02:15:09;100116.28;;;11.75;100.00
11114;BME280;5610;52.154;9.198;2023-03-22T02:18:31;100110.50;;;11.58;100.00
11114;BME280;5610;52.154;9.198;2023-03-22T02:21:35;100119.47;;;11.57;100.00
11114;BME280;5610;52.154;9.198;2023-03-22T02:27:56;100108.91;;;11.55;100.00
11114;BME280;5610;52.154;9.198;2023-03-22T02:30:59;100113.06;;;11.59;100.00
11114;BME280;5610;52.154;9.198;2023-03-22T02:40:30;100109.38;;;11.49;100.00
11114;BME280;5610;52.154;9.198;2023-03-22T02:43:25;100113.09;;;11.46;100.00
11114;BME280;5610;52.154;9.198;2023-03-22T02:46:18;100113.22;;;11.45;100.00
11114;BME280;5610;52.154;9.198;2023-03-22T02:49:12;100108.75;;;11.45;100.00
11114;BME280;5610;52.154;9.198;2023-03-22T02:52:02;100110.16;;;11.38;100.00
11114;BME280;5610;52.154;9.198;2023-03-22T02:54:58;100102.47;;;11.34;100.00
11114;BME280;5610;52.154;9.198;2023-03-22T02:57:51;100104.25;;;11.22;100.00
11114;BME280;5610;52.154;9.198;2023-03-22T03:00:39;100102.47;;;11.10;100.00
11114;BME280;5610;52.154;9.198;2023-03-22T03:03:26;100103.44;;;11.09;100.00
11114;BME280;5610;52.154;9.198;2023-03-22T03:06:16;100104.28;;;11.09;100.00
11114;BME280;5610;52.154;9.198;2023-03-22T03:09:03;100109.81;;;11.06;100.00
11114;BME280;5610;52.154;9.198;2023-03-22T03:11:51;100097.69;;;11.02;100.00
11114;BME280;5610;52.154;9.198;2023-03-22T03:14:37;100100.72;;;11.21;100.00
11114;BME280;5610;52.154;9.198;2023-03-22T03:17:33;100087.59;;;11.18;100.00
11114;BME280;5610;52.154;9.198;2023-03-22T03:20:26;100096.69;;;11.16;100.00
11114;BME280;5610;52.154;9.198;2023-03-22T03:23:26;100094.53;;;11.21;100.00
11114;BME280;5610;52.154;9.198;2023-03-22T03:26:20;100090.16;;;11.20;100.00
11114;BME280;5610;52.154;9.198;2023-03-22T03:29:13;100088.69;;;11.16;100.00
11114;BME280;5610;52.154;9.198;2023-03-22T03:32:08;100092.38;;;11.26;100.00
11114;BME280;5610;52.154;9.198;2023-03-22T03:34:58;100082.63;;;11.38;100.00
11114;BME280;5610;52.154;9.198;2023-03-22T03:37:49;100079.56;;;11.31;100.00
11114;BME280;5610;52.154;9.198;2023-03-22T03:40:38;100080.69;;;11.40;100.00
11114;BME280;5610;52.154;9.198;2023-03-22T03:43:24;100063.84;;;11.39;100.00
11114;BME280;5610;52.154;9.198;2023-03-22T03:46:10;100066.75;;;11.36;100.00
11114;BME280;5610;52.154;9.198;2023-03-22T03:48:58;100066.50;;;11.39;100.00
11114;BME280;5610;52.154;9.198;2023-03-22T03:51:46;100064.22;;;11.46;100.00
11114;BME280;5610;52.154;9.198;2023-03-22T03:54:31;100057.94;;;11.47;100.00
11114;BME280;5610;52.154;9.198;2023-03-22T03:57:17;100061.69;;;11.44;100.00
11114;BME280;5610;52.154;9.198;2023-03-22T04:00:02;100059.75;;;11.46;100.00
11114;BME280;5610;52.154;9.198;2023-03-22T04:03:07;100068.16;;;11.53;100.00
11114;BME280;5610;52.154;9.198;2023-03-22T04:06:23;100057.16;;;11.58;100.00
11114;BME280;5610;52.154;9.198;2023-03-22T04:09:12;100062.47;;;11.58;100.00
11114;BME280;5610;52.154;9.198;2023-03-22T04:12:02;100064.50;;;11.54;100.00
11114;BME280;5610;52.154;9.198;2023-03-22T04:14:47;100068.78;;;11.57;100.00
11114;BME280;5610;52.154;9.198;2023-03-22T04:17:39;100059.13;;;11.43;100.00
11114;BME280;5610;52.154;9.198;2023-03-22T04:20:25;100060.78;;;11.57;100.00
11114;BME280;5610;52.154;9.198;2023-03-22T04:23:12;100059.81;;;11.58;100.00
11114;BME280;5610;52.154;9.198;2023-03-22T04:25:58;100065.19;;;11.69;100.00
11114;BME280;5610;52.154;9.198;2023-03-22T04:28:54;100055.00;;;11.74;100.00
11114;BME280;5610;52.154;9.198;2023-03-22T04:31:39;100053.06;;;11.76;100.00
11114;BME280;5610;52.154;9.198;2023-03-22T04:34:36;100055.84;;;11.74;100.00
11114;BME280;5610;52.154;9.198;2023-03-22T04:37:26;100047.06;;;11.61;100.00
11114;BME280;5610;52.154;9.198;2023-03-22T04:40:35;100051.22;;;11.65;100.00
11114;BME280;5610;52.154;9.198;2023-03-22T04:43:28;100049.00;;;11.83;100.00
11114;BME280;5610;52.154;9.198;2023-03-22T04:46:19;100044.59;;;11.71;100.00
11114;BME280;5610;52.154;9.198;2023-03-22T04:49:10;100045.00;;;11.89;100.00
11114;BME280;5610;52.154;9.198;2023-03-22T04:51:57;100037.38;;;11.84;100.00
11114;BME280;5610;52.154;9.198;2023-03-22T04:54:51;100036.03;;;11.90;100.00
11114;BME280;5610;52.154;9.198;2023-03-22T04:57:38;100035.19;;;11.89;100.00
11114;BME280;5610;52.154;9.198;2023-03-22T05:00:23;100031.53;;;11.90;100.00
11114;BME280;5610;52.154;9.198;2023-03-22T05:03:10;100033.16;;;11.93;100.00
11114;BME280;5610;52.154;9.198;2023-03-22T05:06:01;100030.81;;;11.88;100.00
11114;BME280;5610;52.154;9.198;2023-03-22T05:08:56;100037.81;;;11.78;100.00
11114;BME280;5610;52.154;9.198;2023-03-22T05:11:42;100037.72;;;11.91;100.00
11114;BME280;5610;52.154;9.198;2023-03-22T05:14:52;100035.44;;;11.86;100.00
11114;BME280;5610;52.154;9.198;2023-03-22T05:17:42;100039.94;;;11.97;100.00
11114;BME280;5610;52.154;9.198;2023-03-22T05:20:27;100044.09;;;12.01;100.00
11114;BME280;5610;52.154;9.198;2023-03-22T05:23:24;100043.09;;;12.02;100.00
11114;BME280;5610;52.154;9.198;2023-03-22T05:26:13;100044.09;;;12.01;100.00
11114;BME280;5610;52.154;9.198;2023-03-22T05:28:59;100047.25;;;12.06;100.00
11114;BME280;5610;52.154;9.198;2023-03-22T05:31:56;100022.22;;;11.96;100.00
11114;BME280;5610;52.154;9.198;2023-03-22T05:34:42;100028.28;;;11.98;100.00
11114;BME280;5610;52.154;9.198;2023-03-22T05:37:40;100023.16;;;11.83;100.00
11114;BME280;5610;52.154;9.198;2023-03-22T05:40:26;100020.72;;;11.80;100.00
11114;BME280;5610;52.154;9.198;2023-03-22T05:43:12;100021.63;;;11.92;100.00
11114;BME280;5610;52.154;9.198;2023-03-22T05:46:04;100014.81;;;11.88;100.00
11114;BME280;5610;52.154;9.198;2023-03-22T05:49:00;100018.69;;;11.95;100.00
11114;BME280;5610;52.154;9.198;2023-03-22T05:51:45;100016.16;;;11.94;100.00
11114;BME280;5610;52.154;9.198;2023-03-22T05:54:33;100014.00;;;11.99;100.00
11114;BME280;5610;52.154;9.198;2023-03-22T05:57:18;100015.69;;;12.00;100.00
11114;BME280;5610;52.154;9.198;2023-03-22T06:00:04;100016.53;;;12.00;100.00
11114;BME280;5610;52.154;9.198;2023-03-22T06:03:18;100013.63;;;11.92;100.00
11114;BME280;5610;52.154;9.198;2023-03-22T06:06:14;100016.88;;;11.85;100.00
11114;BME280;5610;52.154;9.198;2023-03-22T06:09:08;100012.84;;;11.90;100.00
11114;BME280;5610;52.154;9.198;2023-03-22T06:11:54;100007.91;;;11.97;100.00
11114;BME280;5610;52.154;9.198;2023-03-22T06:14:40;100009.34;;;11.90;100.00
11114;BME280;5610;52.154;9.198;2023-03-22T06:17:42;100010.56;;;11.97;100.00
11114;BME280;5610;52.154;9.198;2023-03-22T06:20:30;100004.28;;;12.09;100.00
11114;BME280;5610;52.154;9.198;2023-03-22T06:23:21;100010.25;;;12.13;100.00
11114;BME280;5610;52.154;9.198;2023-03-22T06:26:06;100015.00;;;12.20;100.00
11114;BME280;5610;52.154;9.198;2023-03-22T06:28:54;100011.72;;;12.28;100.00
11114;BME280;5610;52.154;9.198;2023-03-22T06:31:40;100002.13;;;12.48;100.00
11114;BME280;5610;52.154;9.198;2023-03-22T06:34:25;100005.25;;;12.64;100.00
11114;BME280;5610;52.154;9.198;2023-03-22T06:37:11;100004.38;;;12.75;100.00
11114;BME280;5610;52.154;9.198;2023-03-22T06:40:00;100015.91;;;12.98;100.00
11114;BME280;5610;52.154;9.198;2023-03-22T06:42:46;100005.66;;;13.14;100.00
11114;BME280;5610;52.154;9.198;2023-03-22T06:45:34;99998.81;;;13.32;100.00
11114;BME280;5610;52.154;9.198;2023-03-22T06:48:21;99998.63;;;13.45;100.00
11114;BME280;5610;52.154;9.198;2023-03-22T06:51:23;99996.28;;;13.52;100.00
11114;BME280;5610;52.154;9.198;2023-03-22T06:54:08;99997.19;;;13.41;100.00
11114;BME280;5610;52.154;9.198;2023-03-22T06:56:56;100001.09;;;13.37;100.00
11114;BME280;5610;52.154;9.198;2023-03-22T06:59:41;100008.69;;;13.53;100.00
11114;BME280;5610;52.154;9.198;2023-03-22T07:02:27;100008.25;;;13.68;100.00
11114;BME280;5610;52.154;9.198;2023-03-22T07:05:29;99995.97;;;13.87;100.00
11114;BME280;5610;52.154;9.198;2023-03-22T07:08:15;99996.81;;;13.87;100.00
11114;BME280;5610;52.154;9.198;2023-03-22T07:11:06;99994.50;;;14.24;100.00
11114;BME280;5610;52.154;9.198;2023-03-22T07:13:53;99992.28;;;14.60;100.00
11114;BME280;5610;52.154;9.198;2023-03-22T07:16:39;99996.16;;;14.77;100.00
11114;BME280;5610;52.154;9.198;2023-03-22T07:19:24;100003.88;;;14.40;100.00
11114;BME280;5610;52.154;9.198;2023-03-22T07:22:11;99987.88;;;14.49;100.00
11114;BME280;5610;52.154;9.198;2023-03-22T07:24:56;99990.31;;;14.62;100.00
11114;BME280;5610;52.154;9.198;2023-03-22T07:27:42;99991.75;;;14.15;100.00
11114;BME280;5610;52.154;9.198;2023-03-22T07:30:28;99981.88;;;13.85;100.00
11114;BME280;5610;52.154;9.198;2023-03-22T07:33:14;99980.06;;;14.16;100.00
11114;BME280;5610;52.154;9.198;2023-03-22T07:36:00;99990.09;;;14.23;100.00
11114;BME280;5610;52.154;9.198;2023-03-22T07:38:46;99990.06;;;14.14;100.00
11114;BME280;5610;52.154;9.198;2023-03-22T07:41:35;99987.19;;;14.26;100.00
11114;BME280;5610;52.154;9.198;2023-03-22T07:44:49;99982.31;;;14.11;100.00
11114;BME280;5610;52.154;9.198;2023-03-22T07:47:36;99979.03;;;14.07;100.00
11114;BME280;5610;52.154;9.198;2023-03-22T07:50:45;99990.81;;;13.95;100.00
11114;BME280;5610;52.154;9.198;2023-03-22T07:53:30;99979.38;;;13.93;100.00
11114;BME280;5610;52.154;9.198;2023-03-22T07:56:15;99971.00;;;14.07;100.00
11114;BME280;5610;52.154;9.198;2023-03-22T07:59:00;99967.13;;;14.21;100.00
11114;BME280;5610;52.154;9.198;2023-03-22T08:01:45;99967.22;;;14.10;100.00
11114;BME280;5610;52.154;9.198;2023-03-22T08:04:49;99976.44;;;14.17;100.00
11114;BME280;5610;52.154;9.198;2023-03-22T08:07:46;99964.22;;;14.34;100.00
11114;BME280;5610;52.154;9.198;2023-03-22T08:10:32;99953.03;;;14.49;100.00
11114;BME280;5610;52.154;9.198;2023-03-22T08:13:18;99950.38;;;14.59;100.00
11114;BME280;5610;52.154;9.198;2023-03-22T08:16:04;99947.56;;;14.61;100.00
11114;BME280;5610;52.154;9.198;2023-03-22T08:18:49;99955.16;;;14.65;100.00
11114;BME280;5610;52.154;9.198;2023-03-22T08:21:37;99945.47;;;14.34;100.00
11114;BME280;5610;52.154;9.198;2023-03-22T08:24:26;99944.50;;;14.44;100.00
11114;BME280;5610;52.154;9.198;2023-03-22T08:27:21;99942.69;;;14.14;100.00
11114;BME280;5610;52.154;9.198;2023-03-22T08:30:09;99942.06;;;14.32;100.00
11114;BME280;5610;52.154;9.198;2023-03-22T08:32:54;99941.59;;;14.47;100.00
11114;BME280;5610;52.154;9.198;2023-03-22T08:35:39;99931.97;;;14.45;100.00
11114;BME280;5610;52.154;9.198;2023-03-22T08:38:26;99938.28;;;14.44;100.00
11114;BME280;5610;52.154;9.198;2023-03-22T08:41:12;99939.38;;;14.62;100.00
11114;BME280;5610;52.154;9.198;2023-03-22T08:43:58;99933.63;;;14.76;100.00
11114;BME280;5610;52.154;9.198;2023-03-22T08:46:44;99928.44;;;14.94;100.00
11114;BME280;5610;52.154;9.198;2023-03-22T08:49:29;99929.00;;;14.88;100.00
11114;BME280;5610;52.154;9.198;2023-03-22T08:52:21;99926.72;;;14.93;100.00
11114;BME280;5610;52.154;9.198;2023-03-22T08:55:21;99922.34;;;15.21;100.00
11114;BME280;5610;52.154;9.198;2023-03-22T08:58:26;99919.38;;;15.53;100.00
11114;BME280;5610;52.154;9.198;2023-03-22T09:01:31;99930.97;;;15.34;100.00
11114;BME280;5610;52.154;9.198;2023-03-22T09:04:19;99927.56;;;15.52;99.56
11114;BME280;5610;52.154;9.198;2023-03-22T09:07:05;99920.06;;;15.55;100.00
11114;BME280;5610;52.154;9.198;2023-03-22T09:09:51;99904.09;;;15.54;98.11
11114;BME280;5610;52.154;9.198;2023-03-22T09:12:37;99912.56;;;15.59;94.64
11114;BME280;5610;52.154;9.198;2023-03-22T09:15:22;99907.34;;;15.48;92.59
11114;BME280;5610;52.154;9.198;2023-03-22T09:18:22;99903.00;;;15.66;93.78
11114;BME280;5610;52.154;9.198;2023-03-22T09:21:09;99911.66;;;15.97;90.23
11114;BME280;5610;52.154;9.198;2023-03-22T09:24:12;99904.06;;;15.83;87.30
11114;BME280;5610;52.154;9.198;2023-03-22T09:27:01;99898.38;;;15.96;83.01
11114;BME280;5610;52.154;9.198;2023-03-22T09:29:50;99878.25;;;15.72;83.55
11114;BME280;5610;52.154;9.198;2023-03-22T09:32:35;99882.50;;;16.02;81.26
11114;BME280;5610;52.154;9.198;2023-03-22T09:35:23;99889.22;;;15.88;80.14
11114;BME280;5610;52.154;9.198;2023-03-22T09:38:13;99871.50;;;15.96;78.56
11114;BME280;5610;52.154;9.198;2023-03-22T09:41:03;99891.19;;;16.69;75.14
11114;BME280;5610;52.154;9.198;2023-03-22T09:43:53;99884.53;;;16.91;73.19
11114;BME280;5610;52.154;9.198;2023-03-22T09:46:45;99874.41;;;17.20;73.74
11114;BME280;5610;52.154;9.198;2023-03-22T09:49:34;99898.16;;;16.71;70.60
11114;BME280;5610;52.154;9.198;2023-03-22T09:52:20;99871.94;;;16.28;71.81
11114;BME280;5610;52.154;9.198;2023-03-22T09:55:09;99865.41;;;16.76;74.19
11114;BME280;5610;52.154;9.198;2023-03-22T09:58:06;99866.00;;;17.23;68.13
11114;BME280;5610;52.154;9.198;2023-03-22T10:00:57;99873.41;;;17.21;66.85
11114;BME280;5610;52.154;9.198;2023-03-22T10:04:02;99862.13;;;17.44;66.98
11114;BME280;5610;52.154;9.198;2023-03-22T10:06:49;99872.00;;;18.13;63.63
11114;BME280;5610;52.154;9.198;2023-03-22T10:09:48;99845.47;;;18.43;61.01
11114;BME280;5610;52.154;9.198;2023-03-22T10:12:41;99837.34;;;19.26;59.80
11114;BME280;5610;52.154;9.198;2023-03-22T10:15:29;99846.44;;;19.41;57.55
11114;BME280;5610;52.154;9.198;2023-03-22T10:18:18;99840.31;;;19.71;57.27
11114;BME280;5610;52.154;9.198;2023-03-22T10:21:07;99858.06;;;19.09;57.10
11114;BME280;5610;52.154;9.198;2023-03-22T10:23:56;99843.22;;;19.29;58.53
11114;BME280;5610;52.154;9.198;2023-03-22T10:26:45;99859.94;;;19.00;58.71
11114;BME280;5610;52.154;9.198;2023-03-22T10:29:33;99847.44;;;19.48;57.42
11114;BME280;5610;52.154;9.198;2023-03-22T10:32:24;99840.84;;;21.30;53.58
11114;BME280;5610;52.154;9.198;2023-03-22T10:35:14;99848.13;;;21.30;51.58
11114;BME280;5610;52.154;9.198;2023-03-22T10:38:03;99842.94;;;20.97;51.28
11114;BME280;5610;52.154;9.198;2023-03-22T10:40:53;99860.13;;;20.81;51.66
11114;BME280;5610;52.154;9.198;2023-03-22T10:43:39;99837.44;;;20.60;54.60
11114;BME280;5610;52.154;9.198;2023-03-22T10:46:28;99843.22;;;19.29;54.37
11114;BME280;5610;52.154;9.198;2023-03-22T10:49:22;99842.03;;;21.05;50.65
11114;BME280;5610;52.154;9.198;2023-03-22T10:52:20;99819.81;;;21.09;51.07
11114;BME280;5610;52.154;9.198;2023-03-22T10:55:11;99823.34;;;23.09;47.00
11114;BME280;5610;52.154;9.198;2023-03-22T10:58:09;99834.28;;;24.41;44.59
11114;BME280;5610;52.154;9.198;2023-03-22T11:00:56;99812.00;;;22.84;46.51
11114;BME280;5610;52.154;9.198;2023-03-22T11:03:46;99820.94;;;23.48;45.85
11114;BME280;5610;52.154;9.198;2023-03-22T11:06:37;99818.34;;;23.34;45.41
11114;BME280;5610;52.154;9.198;2023-03-22T11:09:23;99863.41;;;23.49;46.15
11114;BME280;5610;52.154;9.198;2023-03-22T11:12:11;99825.97;;;23.51;45.99
11114;BME280;5610;52.154;9.198;2023-03-22T11:14:57;99820.19;;;26.36;41.51
11114;BME280;5610;52.154;9.198;2023-03-22T11:17:42;99826.03;;;28.45;38.64
11114;BME280;5610;52.154;9.198;2023-03-22T11:20:28;99829.16;;;30.10;36.45
11114;BME280;5610;52.154;9.198;2023-03-22T11:23:14;99837.34;;;29.39;35.27
11114;BME280;5610;52.154;9.198;2023-03-22T11:26:06;99832.13;;;25.90;39.83
11114;BME280;5610;52.154;9.198;2023-03-22T11:29:00;99836.63;;;24.50;41.39
11114;BME280;5610;52.154;9.198;2023-03-22T11:31:52;99852.88;;;22.25;44.51
11114;BME280;5610;52.154;9.198;2023-03-22T11:34:44;99838.94;;;21.83;45.67
11114;BME280;5610;52.154;9.198;2023-03-22T11:37:30;99842.03;;;21.28;47.68
11114;BME280;5610;52.154;9.198;2023-03-22T11:40:17;99841.97;;;21.36;47.72
11114;BME280;5610;52.154;9.198;2023-03-22T11:43:11;99851.34;;;22.88;46.23
11114;BME280;5610;52.154;9.198;2023-03-22T11:46:01;99848.13;;;23.20;44.34
11114;BME280;5610;52.154;9.198;2023-03-22T11:48:49;99841.44;;;24.07;42.79
11114;BME280;5610;52.154;9.198;2023-03-22T11:51:37;99835.81;;;23.52;44.47
11114;BME280;5610;52.154;9.198;2023-03-22T11:54:27;99825.19;;;23.86;43.65
11114;BME280;5610;52.154;9.198;2023-03-22T11:57:15;99827.69;;;24.76;41.88
11114;BME280;5610;52.154;9.198;2023-03-22T12:00:04;99824.75;;;24.84;41.70
11114;BME280;5610;52.154;9.198;2023-03-22T12:02:57;99835.03;;;24.28;43.34
11114;BME280;5610;52.154;9.198;2023-03-22T12:05:46;99843.06;;;22.96;43.88
11114;BME280;5610;52.154;9.198;2023-03-22T12:08:38;99837.53;;;22.02;46.23
11114;BME280;5610;52.154;9.198;2023-03-22T12:11:28;99841.50;;;20.55;47.22
11114;BME280;5610;52.154;9.198;2023-03-22T12:14:21;99854.22;;;20.08;49.18
11114;BME280;5610;52.154;9.198;2023-03-22T12:17:11;99825.16;;;19.21;50.75
11114;BME280;5610;52.154;9.198;2023-03-22T12:20:09;99845.56;;;18.25;52.82
11114;BME280;5610;52.154;9.198;2023-03-22T12:22:57;99826.00;;;18.81;52.51
11114;BME280;5610;52.154;9.198;2023-03-22T12:25:45;99838.44;;;19.72;51.28
11114;BME280;5610;52.154;9.198;2023-03-22T12:28:35;99848.28;;;19.40;50.91
11114;BME280;5610;52.154;9.198;2023-03-22T12:31:26;99827.34;;;18.77;52.78
11114;BME280;5610;52.154;9.198;2023-03-22T12:34:16;99819.69;;;18.40;52.58
11114;BME280;5610;52.154;9.198;2023-03-22T12:37:05;99830.72;;;18.79;52.98
11114;BME280;5610;52.154;9.198;2023-03-22T12:39:55;99818.94;;;19.05;52.74
11114;BME280;5610;52.154;9.198;2023-03-22T12:42:46;99810.38;;;18.34;52.73
11114;BME280;5610;52.154;9.198;2023-03-22T12:45:38;99800.81;;;18.48;52.54
11114;BME280;5610;52.154;9.198;2023-03-22T12:48:31;99784.06;;;18.20;53.45
11114;BME280;5610;52.154;9.198;2023-03-22T12:51:18;99794.28;;;18.67;54.35
11114;BME280;5610;52.154;9.198;2023-03-22T12:54:05;99789.69;;;18.51;53.80
11114;BME280;5610;52.154;9.198;2023-03-22T12:56:51;99782.28;;;19.27;52.64
11114;BME280;5610;52.154;9.198;2023-03-22T12:59:41;99795.06;;;19.49;52.11
11114;BME280;5610;52.154;9.198;2023-03-22T13:02:30;99779.19;;;19.62;51.45
11114;BME280;5610;52.154;9.198;2023-03-22T13:05:17;99780.97;;;20.79;49.44
11114;BME280;5610;52.154;9.198;2023-03-22T13:08:02;99795.56;;;20.70;48.98
11114;BME280;5610;52.154;9.198;2023-03-22T13:11:01;99821.88;;;19.83;50.32
11114;BME280;5610;52.154;9.198;2023-03-22T13:13:48;99783.00;;;18.80;53.05
11114;BME280;5610;52.154;9.198;2023-03-22T13:16:50;99782.47;;;19.33;53.09
11114;BME280;5610;52.154;9.198;2023-03-22T13:19:36;99783.50;;;18.91;52.60
11114;BME280;5610;52.154;9.198;2023-03-22T13:22:25;99790.88;;;18.49;53.99
11114;BME280;5610;52.154;9.198;2023-03-22T13:25:13;99781.25;;;17.96;54.95
11114;BME280;5610;52.154;9.198;2023-03-22T13:28:23;99785.97;;;18.52;54.62
11114;BME280;5610;52.154;9.198;2023-03-22T13:31:28;99786.78;;;18.28;54.14
11114;BME280;5610;52.154;9.198;2023-03-22T13:34:18;99781.00;;;18.15;55.61
11114;BME280;5610;52.154;9.198;2023-03-22T13:37:08;99783.53;;;18.17;55.75
11114;BME280;5610;52.154;9.198;2023-03-22T13:39:55;99799.19;;;18.05;55.84
11114;BME280;5610;52.154;9.198;2023-03-22T13:42:44;99813.00;;;17.50;58.20
11114;BME280;5610;52.154;9.198;2023-03-22T13:45:32;99803.03;;;17.16;60.86
11114;BME280;5610;52.154;9.198;2023-03-22T13:48:28;99803.06;;;16.81;66.87
11114;BME280;5610;52.154;9.198;2023-03-22T13:51:17;99793.94;;;16.73;69.71
11114;BME280;5610;52.154;9.198;2023-03-22T13:54:07;99803.69;;;16.92;69.50
11114;BME280;5610;52.154;9.198;2023-03-22T13:56:56;99805.44;;;16.66;69.18
11114;BME280;5610;52.154;9.198;2023-03-22T13:59:58;99807.50;;;16.54;71.28
11114;BME280;5610;52.154;9.198;2023-03-22T14:02:48;99808.66;;;16.52;71.18
11114;BME280;5610;52.154;9.198;2023-03-22T14:05:36;99809.34;;;16.54;70.23
11114;BME280;5610;52.154;9.198;2023-03-22T14:08:25;99809.34;;;16.36;75.68
11114;BME280;5610;52.154;9.198;2023-03-22T14:11:20;99814.09;;;16.60;77.69
11114;BME280;5610;52.154;9.198;2023-03-22T14:14:11;99806.72;;;16.62;74.61
11114;BME280;5610;52.154;9.198;2023-03-22T14:17:02;99811.22;;;16.89;77.80
11114;BME280;5610;52.154;9.198;2023-03-22T14:19:51;99814.44;;;17.36;80.37
11114;BME280;5610;52.154;9.198;2023-03-22T14:22:38;99804.72;;;17.69;73.56
11114;BME280;5610;52.154;9.198;2023-03-22T14:25:29;99802.84;;;18.04;72.65
11114;BME280;5610;52.154;9.198;2023-03-22T14:28:18;99816.88;;;18.07;72.87
11114;BME280;5610;52.154;9.198;2023-03-22T14:31:04;99814.16;;;17.99;69.12
11114;BME280;5610;52.154;9.198;2023-03-22T14:33:51;99809.56;;;17.92;69.56
11114;BME280;5610;52.154;9.198;2023-03-22T14:36:41;99805.28;;;17.81;69.70
11114;BME280;5610;52.154;9.198;2023-03-22T14:39:31;99802.75;;;17.79;67.52
11114;BME280;5610;52.154;9.198;2023-03-22T14:42:23;99805.25;;;17.73;68.53
11114;BME280;5610;52.154;9.198;2023-03-22T14:45:16;99799.34;;;17.43;68.54
11114;BME280;5610;52.154;9.198;2023-03-22T14:48:08;99799.06;;;17.28;69.85
11114;BME280;5610;52.154;9.198;2023-03-22T14:50:57;99798.66;;;16.97;68.50
11114;BME280;5610;52.154;9.198;2023-03-22T14:53:46;99798.38;;;17.00;70.54
11114;BME280;5610;52.154;9.198;2023-03-22T14:56:33;99797.59;;;17.08;74.76
11114;BME280;5610;52.154;9.198;2023-03-22T14:59:22;99797.91;;;16.52;69.89
11114;BME280;5610;52.154;9.198;2023-03-22T15:02:17;99794.97;;;16.45;69.67
11114;BME280;5610;52.154;9.198;2023-03-22T15:05:06;99797.81;;;16.61;71.38
11114;BME280;5610;52.154;9.198;2023-03-22T15:07:54;99805.88;;;16.43;68.93
11114;BME280;5610;52.154;9.198;2023-03-22T15:10:53;99795.34;;;16.32;70.11